createdAt,value
2018-07-01T00:00:51.212Z,0.00
2018-07-01T00:01:51.263Z,0.00
2018-07-01T00:02:51.264Z,0.00
2018-07-01T00:03:51.296Z,0.00
2018-07-01T00:05:51.214Z,0.00
2018-07-01T00:06:51.009Z,0.00
2018-07-01T00:07:51.214Z,0.00
2018-07-01T00:08:51.280Z,0.00
2018-07-01T00:09:51.312Z,0.00
2018-07-01T00:10:51.328Z,0.00
2018-07-01T00:11:51.712Z,0.00
2018-07-01T00:12:51.216Z,0.00
2018-07-01T00:13:51.162Z,0.00
2018-07-01T00:14:51.219Z,0.00
2018-07-01T00:15:51.217Z,0.00
2018-07-01T00:16:51.213Z,0.00
2018-07-01T00:17:51.237Z,0.00
2018-07-01T00:18:51.221Z,0.00
2018-07-01T00:19:51.715Z,0.00
2018-07-01T00:20:51.314Z,0.00
2018-07-01T00:21:51.025Z,0.00
2018-07-01T00:22:51.023Z,0.00
2018-07-01T00:23:51.024Z,0.00
2018-07-01T00:24:51.223Z,0.00
2018-07-01T00:25:51.295Z,0.00
2018-07-01T00:26:51.241Z,0.00
2018-07-01T00:27:51.216Z,0.00
2018-07-01T00:28:51.263Z,0.00
2018-07-01T00:29:51.272Z,0.00
2018-07-01T00:30:50.988Z,0.00
2018-07-01T00:31:51.239Z,0.00
2018-07-01T00:32:51.264Z,0.00
2018-07-01T00:33:50.994Z,0.00
2018-07-01T00:34:51.264Z,0.00
2018-07-01T00:35:51.233Z,0.00
2018-07-01T00:36:51.007Z,0.00
2018-07-01T00:37:51.243Z,0.00
2018-07-01T00:38:51.019Z,0.00
2018-07-01T00:39:50.999Z,0.00
2018-07-01T00:40:51.006Z,0.00
2018-07-01T00:41:51.226Z,0.00
2018-07-01T00:42:51.251Z,0.00
2018-07-01T00:43:51.224Z,0.00
2018-07-01T00:44:51.243Z,0.00
2018-07-01T00:45:51.224Z,0.00
2018-07-01T00:46:51.020Z,0.00
2018-07-01T00:47:51.231Z,0.00
2018-07-01T00:48:51.252Z,0.00
2018-07-01T00:49:51.233Z,0.00
2018-07-01T00:50:51.223Z,0.00
2018-07-01T00:51:51.279Z,0.00
2018-07-01T00:52:51.261Z,0.00
2018-07-01T00:53:50.730Z,0.00
2018-07-01T00:54:51.229Z,0.00
2018-07-01T00:55:51.302Z,0.00
2018-07-01T00:56:50.645Z,0.00
2018-07-01T00:57:51.233Z,0.00
2018-07-01T00:58:51.253Z,0.00
2018-07-01T00:59:51.236Z,0.00
2018-07-01T01:00:51.273Z,0.00
2018-07-01T01:01:51.151Z,0.00
2018-07-01T01:02:51.361Z,0.00
2018-07-01T01:03:51.233Z,0.00
2018-07-01T01:04:51.274Z,0.00
2018-07-01T01:05:51.027Z,0.00
2018-07-01T01:06:51.276Z,0.00
2018-07-01T01:07:51.270Z,0.00
2018-07-01T01:08:51.272Z,0.00
2018-07-01T01:09:51.009Z,0.00
2018-07-01T01:10:51.279Z,0.00
2018-07-01T01:11:51.088Z,0.00
2018-07-01T01:12:51.005Z,0.00
2018-07-01T01:13:51.269Z,0.00
2018-07-01T01:14:51.069Z,0.00
2018-07-01T01:15:51.250Z,0.00
2018-07-01T01:16:51.059Z,0.00
2018-07-01T01:17:51.060Z,0.00
2018-07-01T01:18:52.325Z,0.00
2018-07-01T01:19:50.639Z,0.00
2018-07-01T01:20:51.238Z,0.00
2018-07-01T01:21:51.236Z,0.00
2018-07-01T01:22:50.739Z,0.00
2018-07-01T01:23:51.284Z,0.00
2018-07-01T01:24:51.186Z,0.00
2018-07-01T01:25:51.237Z,0.00
2018-07-01T01:26:51.737Z,0.00
2018-07-01T01:27:51.244Z,0.00
2018-07-01T01:28:51.275Z,0.00
2018-07-01T01:29:51.250Z,0.00
2018-07-01T01:30:51.241Z,0.00
2018-07-01T01:31:51.241Z,0.00
2018-07-01T01:32:51.279Z,0.00
2018-07-01T01:33:51.285Z,0.00
2018-07-01T01:34:51.283Z,0.00
2018-07-01T01:35:51.285Z,0.00
2018-07-01T01:36:51.243Z,0.00
2018-07-01T01:37:50.994Z,0.00
2018-07-01T01:38:51.290Z,0.00
2018-07-01T01:39:51.289Z,0.00
2018-07-01T01:40:51.288Z,0.00
2018-07-01T01:41:51.288Z,0.00
2018-07-01T01:42:51.289Z,0.00
2018-07-01T01:43:51.288Z,0.00
2018-07-01T01:44:51.293Z,0.00
2018-07-01T01:45:52.243Z,0.00
2018-07-01T01:46:49.601Z,0.00
2018-07-01T01:47:51.294Z,0.00
2018-07-01T01:48:51.982Z,0.00
2018-07-01T01:49:51.253Z,0.00
2018-07-01T01:50:51.292Z,0.00
2018-07-01T01:51:51.029Z,0.00
2018-07-01T01:52:51.028Z,0.00
2018-07-01T01:53:50.965Z,0.00
2018-07-01T01:54:51.239Z,0.00
2018-07-01T01:55:53.246Z,0.00
2018-07-01T01:56:51.250Z,0.00
2018-07-01T01:57:51.247Z,0.00
2018-07-01T01:58:51.239Z,0.00
2018-07-01T01:59:53.094Z,0.00
2018-07-01T02:00:51.249Z,0.00
2018-07-01T02:01:51.250Z,0.00
2018-07-01T02:02:51.295Z,0.00
2018-07-01T02:03:51.079Z,0.00
2018-07-01T02:04:51.009Z,0.00
2018-07-01T02:05:51.291Z,0.00
2018-07-01T02:06:51.301Z,0.00
2018-07-01T02:07:51.250Z,0.00
2018-07-01T02:08:51.253Z,0.00
2018-07-01T02:09:51.298Z,0.00
2018-07-01T02:10:51.311Z,0.00
2018-07-01T02:11:51.254Z,0.00
2018-07-01T02:12:51.320Z,0.00
2018-07-01T02:13:50.760Z,0.00
2018-07-01T02:14:51.253Z,0.00
2018-07-01T02:15:51.300Z,0.00
2018-07-01T02:16:51.300Z,0.00
2018-07-01T02:17:51.260Z,0.00
2018-07-01T02:18:51.296Z,0.00
2018-07-01T02:19:51.311Z,0.00
2018-07-01T02:20:51.796Z,0.00
2018-07-01T02:21:51.339Z,0.00
2018-07-01T02:22:50.758Z,0.00
2018-07-01T02:23:51.295Z,0.00
2018-07-01T02:24:51.086Z,0.00
2018-07-01T02:25:51.304Z,0.00
2018-07-01T02:26:51.309Z,0.00
2018-07-01T02:27:51.296Z,0.00
2018-07-01T02:28:50.763Z,0.00
2018-07-01T02:29:51.044Z,0.00
2018-07-01T02:30:51.259Z,0.00
2018-07-01T02:31:50.724Z,0.00
2018-07-01T02:32:51.264Z,0.00
2018-07-01T02:33:51.270Z,0.00
2018-07-01T02:34:51.307Z,0.00
2018-07-01T02:35:51.067Z,0.00
2018-07-01T02:36:51.306Z,4.00
2018-07-01T02:37:51.303Z,4.00
2018-07-01T02:38:50.684Z,0.00
2018-07-01T02:39:51.304Z,0.00
2018-07-01T02:40:51.308Z,4.00
2018-07-01T02:41:51.303Z,4.00
2018-07-01T02:42:51.271Z,0.00
2018-07-01T02:43:51.031Z,4.00
2018-07-01T02:44:51.080Z,4.00
2018-07-01T02:45:51.306Z,4.00
2018-07-01T02:46:51.267Z,8.00
2018-07-01T02:47:51.256Z,4.00
2018-07-01T02:48:51.331Z,8.00
2018-07-01T02:49:51.320Z,8.00
2018-07-01T02:50:50.757Z,8.00
2018-07-01T02:51:51.292Z,12.00
2018-07-01T02:52:51.273Z,12.00
2018-07-01T02:53:50.820Z,16.00
2018-07-01T02:54:51.272Z,16.00
2018-07-01T02:55:51.282Z,16.00
2018-07-01T02:56:51.038Z,20.00
2018-07-01T02:57:51.307Z,24.00
2018-07-01T02:58:51.273Z,24.00
2018-07-01T02:59:51.259Z,28.00
2018-07-01T03:00:51.316Z,28.00
2018-07-01T03:01:51.307Z,32.00
2018-07-01T03:02:51.029Z,36.00
2018-07-01T03:03:51.275Z,40.00
2018-07-01T03:04:51.322Z,44.00
2018-07-01T03:05:51.276Z,48.00
2018-07-01T03:06:51.063Z,56.00
2018-07-01T03:07:51.311Z,60.00
2018-07-01T03:08:51.315Z,64.00
2018-07-01T03:09:51.319Z,72.00
2018-07-01T03:10:51.313Z,80.00
2018-07-01T03:11:50.727Z,84.00
2018-07-01T03:12:50.712Z,88.00
2018-07-01T03:13:51.325Z,96.00
2018-07-01T03:14:51.282Z,108.00
2018-07-01T03:15:51.329Z,116.00
2018-07-01T03:16:51.273Z,124.00
2018-07-01T03:17:51.017Z,132.00
2018-07-01T03:18:51.112Z,140.00
2018-07-01T03:19:51.281Z,148.00
2018-07-01T03:20:51.301Z,160.00
2018-07-01T03:21:51.273Z,164.00
2018-07-01T03:22:51.272Z,176.00
2018-07-01T03:23:51.272Z,188.00
2018-07-01T03:24:51.274Z,196.00
2018-07-01T03:25:51.130Z,208.00
2018-07-01T03:26:51.275Z,220.00
2018-07-01T03:27:51.282Z,232.00
2018-07-01T03:28:51.282Z,240.00
2018-07-01T03:29:51.275Z,252.00
2018-07-01T03:30:51.300Z,264.00
2018-07-01T03:31:51.323Z,276.00
2018-07-01T03:32:51.317Z,288.00
2018-07-01T03:33:51.299Z,296.00
2018-07-01T03:34:52.803Z,308.00
2018-07-01T03:35:51.637Z,324.00
2018-07-01T03:36:51.278Z,332.00
2018-07-01T03:37:51.087Z,344.00
2018-07-01T03:38:51.140Z,356.00
2018-07-01T03:39:51.349Z,368.00
2018-07-01T03:40:51.387Z,380.00
2018-07-01T03:41:51.280Z,388.00
2018-07-01T03:42:51.307Z,404.00
2018-07-01T03:43:53.272Z,412.00
2018-07-01T03:44:51.282Z,424.00
2018-07-01T03:45:51.063Z,432.00
2018-07-01T03:46:51.335Z,444.00
2018-07-01T03:47:51.285Z,460.00
2018-07-01T03:48:51.059Z,472.00
2018-07-01T03:49:51.123Z,480.00
2018-07-01T03:50:51.388Z,492.00
2018-07-01T03:51:51.324Z,500.00
2018-07-01T03:52:51.121Z,512.00
2018-07-01T03:53:50.745Z,524.00
2018-07-01T03:54:51.128Z,532.00
2018-07-01T03:55:51.091Z,544.00
2018-07-01T03:56:51.128Z,552.00
2018-07-01T03:57:51.332Z,560.00
2018-07-01T03:58:51.126Z,572.00
2018-07-01T03:59:51.342Z,584.00
2018-07-01T04:00:50.735Z,592.00
2018-07-01T04:01:51.135Z,600.00
2018-07-01T04:02:51.340Z,608.00
2018-07-01T04:03:50.800Z,620.00
2018-07-01T04:04:51.329Z,628.00
2018-07-01T04:05:51.327Z,636.00
2018-07-01T04:06:51.365Z,644.00
2018-07-01T04:07:51.290Z,652.00
2018-07-01T04:08:51.319Z,660.00
2018-07-01T04:09:51.389Z,668.00
2018-07-01T04:10:51.095Z,676.00
2018-07-01T04:11:51.301Z,688.00
2018-07-01T04:12:51.132Z,692.00
2018-07-01T04:13:51.093Z,700.00
2018-07-01T04:14:51.338Z,708.00
2018-07-01T04:15:51.312Z,720.00
2018-07-01T04:16:50.736Z,728.00
2018-07-01T04:17:51.314Z,732.00
2018-07-01T04:18:51.294Z,740.00
2018-07-01T04:19:51.336Z,748.00
2018-07-01T04:20:51.129Z,756.00
2018-07-01T04:21:51.298Z,764.00
2018-07-01T04:22:51.299Z,772.00
2018-07-01T04:23:51.314Z,776.00
2018-07-01T04:24:51.311Z,784.00
2018-07-01T04:25:51.343Z,792.00
2018-07-01T04:26:51.300Z,800.00
2018-07-01T04:27:51.296Z,804.00
2018-07-01T04:28:51.105Z,816.00
2018-07-01T04:29:51.293Z,820.00
2018-07-01T04:30:51.377Z,832.00
2018-07-01T04:31:51.303Z,836.00
2018-07-01T04:32:51.349Z,848.00
2018-07-01T04:33:51.299Z,852.00
2018-07-01T04:34:51.348Z,860.00
2018-07-01T04:35:51.347Z,868.00
2018-07-01T04:36:51.032Z,876.00
2018-07-01T04:37:51.288Z,884.00
2018-07-01T04:38:51.351Z,888.00
2018-07-01T04:39:51.314Z,896.00
2018-07-01T04:40:51.299Z,904.00
2018-07-01T04:41:51.215Z,912.00
2018-07-01T04:42:51.345Z,920.00
2018-07-01T04:43:51.128Z,924.00
2018-07-01T04:44:51.316Z,928.00
2018-07-01T04:45:51.352Z,936.00
2018-07-01T04:46:51.128Z,944.00
2018-07-01T04:47:51.334Z,952.00
2018-07-01T04:48:51.352Z,956.00
2018-07-01T04:49:51.368Z,960.00
2018-07-01T04:50:50.682Z,964.00
2018-07-01T04:51:51.298Z,972.00
2018-07-01T04:52:51.356Z,980.00
2018-07-01T04:53:51.246Z,984.00
2018-07-01T04:54:51.356Z,996.00
2018-07-01T04:55:50.619Z,1000.00
2018-07-01T04:56:51.332Z,1004.00
2018-07-01T04:57:51.294Z,1008.00
2018-07-01T04:58:50.796Z,1020.00
2018-07-01T04:59:50.801Z,1028.00
2018-07-01T05:00:51.173Z,1032.00
2018-07-01T05:01:51.374Z,1040.00
2018-07-01T05:02:51.310Z,1044.00
2018-07-01T05:03:51.353Z,1052.00
2018-07-01T05:04:50.850Z,1056.00
2018-07-01T05:05:52.862Z,1060.00
2018-07-01T05:06:51.304Z,1068.00
2018-07-01T05:07:51.313Z,1072.00
2018-07-01T05:08:51.094Z,1080.00
2018-07-01T05:09:51.142Z,1084.00
2018-07-01T05:10:51.312Z,1096.00
2018-07-01T05:11:51.358Z,1100.00
2018-07-01T05:12:51.352Z,1108.00
2018-07-01T05:13:51.348Z,1116.00
2018-07-01T05:14:51.317Z,1120.00
2018-07-01T05:15:51.306Z,1128.00
2018-07-01T05:16:51.354Z,1136.00
2018-07-01T05:17:51.364Z,1144.00
2018-07-01T05:18:51.311Z,1148.00
2018-07-01T05:19:51.355Z,1156.00
2018-07-01T05:20:51.354Z,1164.00
2018-07-01T05:21:51.366Z,1168.00
2018-07-01T05:22:51.353Z,1176.00
2018-07-01T05:23:51.315Z,1184.00
2018-07-01T05:24:51.366Z,1188.00
2018-07-01T05:25:51.385Z,1196.00
2018-07-01T05:26:51.112Z,1204.00
2018-07-01T05:27:50.816Z,1208.00
2018-07-01T05:28:51.377Z,1220.00
2018-07-01T05:29:51.318Z,1228.00
2018-07-01T05:30:51.359Z,1232.00
2018-07-01T05:31:50.641Z,1236.00
2018-07-01T05:32:51.314Z,1244.00
2018-07-01T05:33:51.355Z,1252.00
2018-07-01T05:34:51.373Z,1256.00
2018-07-01T05:35:51.326Z,1264.00
2018-07-01T05:36:50.927Z,1268.00
2018-07-01T05:37:51.373Z,1272.00
2018-07-01T05:38:51.372Z,1280.00
2018-07-01T05:39:51.339Z,1284.00
2018-07-01T05:40:51.360Z,1288.00
2018-07-01T05:41:51.358Z,1292.00
2018-07-01T05:42:51.374Z,1296.00
2018-07-01T05:43:51.365Z,1296.00
2018-07-01T05:44:51.343Z,1300.00
2018-07-01T05:45:51.379Z,1304.00
2018-07-01T05:46:51.393Z,1316.00
2018-07-01T05:47:51.392Z,1308.00
2018-07-01T05:48:51.121Z,1308.00
2018-07-01T05:49:50.843Z,1312.00
2018-07-01T05:50:51.363Z,1316.00
2018-07-01T05:51:51.369Z,1316.00
2018-07-01T05:52:51.113Z,1320.00
2018-07-01T05:53:51.318Z,1328.00
2018-07-01T05:54:50.888Z,1336.00
2018-07-01T05:55:51.371Z,1336.00
2018-07-01T05:56:50.890Z,1332.00
2018-07-01T05:57:51.392Z,1340.00
2018-07-01T05:58:53.284Z,1340.00
2018-07-01T05:59:51.372Z,1344.00
2018-07-01T06:00:51.329Z,1348.00
2018-07-01T06:01:50.881Z,1348.00
2018-07-01T06:02:51.369Z,1360.00
2018-07-01T06:03:51.428Z,1364.00
2018-07-01T06:04:50.904Z,1356.00
2018-07-01T06:05:51.327Z,1356.00
2018-07-01T06:06:51.368Z,1356.00
2018-07-01T06:07:51.390Z,1356.00
2018-07-01T06:08:50.896Z,1356.00
2018-07-01T06:09:51.377Z,1360.00
2018-07-01T06:10:51.055Z,1360.00
2018-07-01T06:12:05.114Z,1360.00
2018-07-01T06:12:51.120Z,1364.00
2018-07-01T06:13:51.162Z,1364.00
2018-07-01T06:14:51.181Z,1360.00
2018-07-01T06:15:52.372Z,1360.00
2018-07-01T06:16:51.461Z,1360.00
2018-07-01T06:17:50.849Z,1364.00
2018-07-01T06:18:51.382Z,1364.00
2018-07-01T06:19:51.347Z,1360.00
2018-07-01T06:20:51.385Z,1364.00
2018-07-01T06:21:51.379Z,1360.00
2018-07-01T06:22:51.486Z,1364.00
2018-07-01T06:23:51.330Z,1360.00
2018-07-01T06:24:51.138Z,1364.00
2018-07-01T06:25:50.669Z,1364.00
2018-07-01T06:26:51.334Z,1368.00
2018-07-01T06:27:51.695Z,1364.00
2018-07-01T06:28:51.109Z,1364.00
2018-07-01T06:29:51.210Z,1364.00
2018-07-01T06:30:51.375Z,1368.00
2018-07-01T06:31:51.650Z,1368.00
2018-07-01T06:32:51.432Z,1368.00
2018-07-01T06:33:51.343Z,1368.00
2018-07-01T06:34:50.891Z,1368.00
2018-07-01T06:35:51.405Z,1368.00
2018-07-01T06:36:51.395Z,1372.00
2018-07-01T06:37:51.073Z,1368.00
2018-07-01T06:38:50.837Z,1368.00
2018-07-01T06:39:51.390Z,1368.00
2018-07-01T06:40:51.385Z,1372.00
2018-07-01T06:41:51.451Z,1372.00
2018-07-01T06:42:50.885Z,1372.00
2018-07-01T06:43:53.376Z,1376.00
2018-07-01T06:44:51.343Z,1372.00
2018-07-01T06:45:51.343Z,1376.00
2018-07-01T06:46:51.344Z,1376.00
2018-07-01T06:47:50.639Z,1376.00
2018-07-01T06:48:51.699Z,1376.00
2018-07-01T06:49:50.858Z,1376.00
2018-07-01T06:50:51.389Z,1380.00
2018-07-01T06:51:51.430Z,1380.00
2018-07-01T06:52:51.388Z,1384.00
2018-07-01T06:53:52.978Z,1380.00
2018-07-01T06:54:51.214Z,1384.00
2018-07-01T06:55:51.346Z,1388.00
2018-07-01T06:56:50.911Z,1388.00
2018-07-01T06:57:51.343Z,1388.00
2018-07-01T06:58:51.364Z,1388.00
2018-07-01T06:59:51.389Z,1388.00
2018-07-01T07:00:51.384Z,1388.00
2018-07-01T07:01:51.389Z,1388.00
2018-07-01T07:02:51.401Z,1392.00
2018-07-01T07:03:51.682Z,1392.00
2018-07-01T07:04:53.004Z,1396.00
2018-07-01T07:05:51.424Z,1392.00
2018-07-01T07:06:51.400Z,1396.00
2018-07-01T07:07:51.434Z,1396.00
2018-07-01T07:08:51.389Z,1396.00
2018-07-01T07:09:50.869Z,1400.00
2018-07-01T07:10:51.208Z,1404.00
2018-07-01T07:11:51.637Z,1404.00
2018-07-01T07:12:51.441Z,1404.00
2018-07-01T07:13:51.215Z,1408.00
2018-07-01T07:14:51.419Z,1404.00
2018-07-01T07:15:51.841Z,1408.00
2018-07-01T07:16:51.446Z,1408.00
2018-07-01T07:17:51.377Z,1408.00
2018-07-01T07:18:51.283Z,1412.00
2018-07-01T07:19:51.404Z,1412.00
2018-07-01T07:20:51.334Z,1412.00
2018-07-01T07:21:51.477Z,1412.00
2018-07-01T07:22:51.669Z,1416.00
2018-07-01T07:23:51.400Z,1416.00
2018-07-01T07:24:51.602Z,1420.00
2018-07-01T07:25:51.400Z,1420.00
2018-07-01T07:26:51.193Z,1420.00
2018-07-01T07:27:51.124Z,1420.00
2018-07-01T07:28:50.855Z,1424.00
2018-07-01T07:29:51.403Z,1424.00
2018-07-01T07:30:50.901Z,1424.00
2018-07-01T07:31:51.451Z,1424.00
2018-07-01T07:32:51.118Z,1432.00
2018-07-01T07:33:50.858Z,1432.00
2018-07-01T07:34:51.411Z,1436.00
2018-07-01T07:35:51.403Z,1436.00
2018-07-01T07:36:51.373Z,1436.00
2018-07-01T07:37:51.426Z,1440.00
2018-07-01T07:38:50.908Z,1440.00
2018-07-01T07:39:51.397Z,1448.00
2018-07-01T07:40:51.227Z,1448.00
2018-07-01T07:41:51.408Z,1452.00
2018-07-01T07:42:51.408Z,1452.00
2018-07-01T07:43:51.411Z,1456.00
2018-07-01T07:44:50.707Z,1460.00
2018-07-01T07:45:51.425Z,1460.00
2018-07-01T07:46:51.079Z,1464.00
2018-07-01T07:47:51.399Z,1464.00
2018-07-01T07:48:51.415Z,1468.00
2018-07-01T07:49:51.363Z,1472.00
2018-07-01T07:50:51.411Z,1480.00
2018-07-01T07:51:51.373Z,1480.00
2018-07-01T07:52:52.971Z,1480.00
2018-07-01T07:53:51.455Z,1480.00
2018-07-01T07:54:51.417Z,1484.00
2018-07-01T07:55:51.447Z,1488.00
2018-07-01T07:56:51.428Z,1492.00
2018-07-01T07:57:50.876Z,1496.00
2018-07-01T07:58:51.459Z,1496.00
2018-07-01T07:59:50.867Z,1500.00
2018-07-01T08:00:51.415Z,1500.00
2018-07-01T08:01:51.408Z,1504.00
2018-07-01T08:02:51.418Z,1508.00
2018-07-01T08:03:51.117Z,1516.00
2018-07-01T08:04:51.747Z,1512.00
2018-07-01T08:05:51.919Z,1520.00
2018-07-01T08:06:50.789Z,1520.00
2018-07-01T08:07:51.212Z,1524.00
2018-07-01T08:08:51.417Z,1524.00
2018-07-01T08:09:51.417Z,1528.00
2018-07-01T08:10:51.730Z,1532.00
2018-07-01T08:11:51.614Z,1536.00
2018-07-01T08:12:51.394Z,1536.00
2018-07-01T08:13:51.728Z,1540.00
2018-07-01T08:14:51.434Z,1544.00
2018-07-01T08:15:51.372Z,1544.00
2018-07-01T08:16:51.384Z,1548.00
2018-07-01T08:17:51.368Z,1552.00
2018-07-01T08:18:51.193Z,1556.00
2018-07-01T08:19:51.183Z,1564.00
2018-07-01T08:20:51.375Z,1568.00
2018-07-01T08:21:50.978Z,1572.00
2018-07-01T08:22:51.278Z,1576.00
2018-07-01T08:23:50.870Z,1576.00
2018-07-01T08:24:51.435Z,1580.00
2018-07-01T08:25:51.492Z,1584.00
2018-07-01T08:26:51.425Z,1588.00
2018-07-01T08:27:51.165Z,1588.00
2018-07-01T08:28:51.450Z,1592.00
2018-07-01T08:29:51.423Z,1596.00
2018-07-01T08:30:50.733Z,1596.00
2018-07-01T08:31:51.440Z,1592.00
2018-07-01T08:32:51.348Z,1600.00
2018-07-01T08:33:51.503Z,1604.00
2018-07-01T08:34:51.439Z,1608.00
2018-07-01T08:35:51.383Z,1612.00
2018-07-01T08:36:51.403Z,1616.00
2018-07-01T08:37:51.254Z,1620.00
2018-07-01T08:38:51.448Z,1624.00
2018-07-01T08:39:51.443Z,1628.00
2018-07-01T08:40:51.485Z,1628.00
2018-07-01T08:41:51.423Z,1636.00
2018-07-01T08:42:51.432Z,1632.00
2018-07-01T08:43:51.434Z,1636.00
2018-07-01T08:44:50.885Z,1632.00
2018-07-01T08:45:51.781Z,1640.00
2018-07-01T08:46:51.724Z,1648.00
2018-07-01T08:47:51.434Z,1648.00
2018-07-01T08:48:51.449Z,1648.00
2018-07-01T08:49:51.384Z,1656.00
2018-07-01T08:50:51.408Z,1656.00
2018-07-01T08:51:51.450Z,1660.00
2018-07-01T08:53:26.884Z,1664.00
2018-07-01T08:53:49.776Z,1664.00
2018-07-01T08:54:51.518Z,1668.00
2018-07-01T08:55:51.432Z,1672.00
2018-07-01T08:56:51.153Z,1672.00
2018-07-01T08:57:51.446Z,1676.00
2018-07-01T08:58:51.408Z,1680.00
2018-07-01T08:59:51.741Z,1684.00
2018-07-01T09:00:50.928Z,1696.00
2018-07-01T09:01:51.442Z,1700.00
2018-07-01T09:02:51.441Z,1704.00
2018-07-01T09:03:51.453Z,1708.00
2018-07-01T09:04:51.410Z,1712.00
2018-07-01T09:05:51.197Z,1712.00
2018-07-01T09:06:51.438Z,1716.00
2018-07-01T09:07:51.438Z,1716.00
2018-07-01T09:08:51.476Z,1720.00
2018-07-01T09:09:51.454Z,1724.00
2018-07-01T09:10:51.509Z,1728.00
2018-07-01T09:11:51.369Z,1736.00
2018-07-01T09:12:51.441Z,1740.00
2018-07-01T09:13:51.413Z,1744.00
2018-07-01T09:14:51.469Z,1744.00
2018-07-01T09:15:51.432Z,1740.00
2018-07-01T09:16:51.516Z,1744.00
2018-07-01T09:17:51.256Z,1748.00
2018-07-01T09:18:51.416Z,1752.00
2018-07-01T09:19:53.019Z,1752.00
2018-07-01T09:20:51.473Z,1760.00
2018-07-01T09:21:51.468Z,1764.00
2018-07-01T09:22:51.249Z,1764.00
2018-07-01T09:23:51.451Z,1768.00
2018-07-01T09:24:51.448Z,1776.00
2018-07-01T09:25:53.789Z,1776.00
2018-07-01T09:26:51.284Z,1776.00
2018-07-01T09:27:50.996Z,1780.00
2018-07-01T09:28:51.498Z,1784.00
2018-07-01T09:29:51.547Z,1788.00
2018-07-01T09:30:51.740Z,1788.00
2018-07-01T09:31:51.403Z,1796.00
2018-07-01T09:32:51.451Z,1800.00
2018-07-01T09:33:51.176Z,1800.00
2018-07-01T09:34:51.400Z,1804.00
2018-07-01T09:35:51.452Z,1808.00
2018-07-01T09:36:51.279Z,1836.00
2018-07-01T09:37:51.872Z,1816.00
2018-07-01T09:38:51.324Z,1816.00
2018-07-01T09:39:51.471Z,1828.00
2018-07-01T09:40:51.459Z,1828.00
2018-07-01T09:41:51.468Z,1832.00
2018-07-01T09:42:51.450Z,1836.00
2018-07-01T09:43:51.881Z,1840.00
2018-07-01T09:44:51.463Z,1844.00
2018-07-01T09:45:51.282Z,1848.00
2018-07-01T09:46:51.479Z,1852.00
2018-07-01T09:47:51.281Z,1856.00
2018-07-01T09:48:51.259Z,1864.00
2018-07-01T09:49:51.444Z,1868.00
2018-07-01T09:50:51.429Z,1868.00
2018-07-01T09:51:51.222Z,1880.00
2018-07-01T09:52:51.458Z,1884.00
2018-07-01T09:53:51.406Z,1888.00
2018-07-01T09:54:51.777Z,1892.00
2018-07-01T09:55:52.023Z,1896.00
2018-07-01T09:56:51.940Z,1900.00
2018-07-01T09:57:50.907Z,1908.00
2018-07-01T09:58:49.804Z,1908.00
2018-07-01T09:59:51.461Z,1916.00
2018-07-01T10:00:51.655Z,1924.00
2018-07-01T10:01:51.373Z,1928.00
2018-07-01T10:02:51.502Z,1936.00
2018-07-01T10:03:51.461Z,1940.00
2018-07-01T10:04:51.459Z,1944.00
2018-07-01T10:05:51.273Z,1948.00
2018-07-01T10:06:51.414Z,1952.00
2018-07-01T10:07:51.731Z,1956.00
2018-07-01T10:08:51.415Z,1960.00
2018-07-01T10:09:51.513Z,1960.00
2018-07-01T10:10:51.776Z,1968.00
2018-07-01T10:11:51.476Z,1976.00
2018-07-01T10:12:51.523Z,1976.00
2018-07-01T10:13:51.472Z,1980.00
2018-07-01T10:14:51.043Z,1980.00
2018-07-01T10:15:51.773Z,1988.00
2018-07-01T10:16:51.392Z,1992.00
2018-07-01T10:17:51.791Z,2000.00
2018-07-01T10:18:51.477Z,2004.00
2018-07-01T10:19:51.818Z,2008.00
2018-07-01T10:20:51.802Z,2016.00
2018-07-01T10:21:51.569Z,2020.00
2018-07-01T10:22:51.516Z,2028.00
2018-07-01T10:23:51.418Z,2036.00
2018-07-01T10:24:51.907Z,2040.00
2018-07-01T10:25:51.770Z,2048.00
2018-07-01T10:26:50.919Z,2052.00
2018-07-01T10:27:51.482Z,2060.00
2018-07-01T10:28:51.278Z,2064.00
2018-07-01T10:29:51.474Z,2072.00
2018-07-01T10:30:51.470Z,2080.00
2018-07-01T10:31:51.500Z,2084.00
2018-07-01T10:32:51.151Z,2092.00
2018-07-01T10:33:51.476Z,2108.00
2018-07-01T10:34:51.471Z,2108.00
2018-07-01T10:35:51.423Z,2112.00
2018-07-01T10:36:51.479Z,2116.00
2018-07-01T10:37:51.467Z,2124.00
2018-07-01T10:38:51.517Z,2124.00
2018-07-01T10:39:51.461Z,2136.00
2018-07-01T10:40:51.473Z,2136.00
2018-07-01T10:41:49.910Z,2140.00
2018-07-01T10:42:53.478Z,2148.00
2018-07-01T10:43:51.429Z,2152.00
2018-07-01T10:44:51.487Z,2160.00
2018-07-01T10:45:51.926Z,2176.00
2018-07-01T10:46:51.856Z,2184.00
2018-07-01T10:48:11.946Z,2196.00
2018-07-01T10:48:51.527Z,2208.00
2018-07-01T10:49:51.292Z,2220.00
2018-07-01T10:50:51.892Z,2224.00
2018-07-01T10:51:50.977Z,2248.00
2018-07-01T10:52:51.821Z,2256.00
2018-07-01T10:53:51.427Z,2276.00
2018-07-01T10:54:51.537Z,2288.00
2018-07-01T10:55:51.448Z,2292.00
2018-07-01T10:56:51.707Z,2300.00
2018-07-01T10:57:51.964Z,2312.00
2018-07-01T10:58:51.449Z,2312.00
2018-07-01T10:59:51.254Z,2316.00
2018-07-01T11:00:51.497Z,2328.00
2018-07-01T11:01:51.957Z,2332.00
2018-07-01T11:02:51.729Z,2344.00
2018-07-01T11:03:51.666Z,2352.00
2018-07-01T11:04:53.523Z,2364.00
2018-07-01T11:05:51.555Z,2380.00
2018-07-01T11:06:53.052Z,2384.00
2018-07-01T11:07:53.119Z,2404.00
2018-07-01T11:08:51.800Z,2412.00
2018-07-01T11:09:50.943Z,2424.00
2018-07-01T11:10:51.511Z,2436.00
2018-07-01T11:11:51.444Z,2444.00
2018-07-01T11:12:51.464Z,2460.00
2018-07-01T11:13:51.445Z,2472.00
2018-07-01T11:14:51.469Z,2488.00
2018-07-01T11:15:51.696Z,2504.00
2018-07-01T11:16:52.143Z,2524.00
2018-07-01T11:17:51.801Z,2528.00
2018-07-01T11:18:50.111Z,2540.00
2018-07-01T11:19:51.993Z,2560.00
2018-07-01T11:20:51.798Z,2572.00
2018-07-01T11:21:51.881Z,2584.00
2018-07-01T11:22:51.488Z,2588.00
2018-07-01T11:23:51.448Z,2596.00
2018-07-01T11:24:51.006Z,2608.00
2018-07-01T11:25:51.453Z,2620.00
2018-07-01T11:26:51.610Z,2636.00
2018-07-01T11:27:51.824Z,2648.00
2018-07-01T11:28:51.462Z,2660.00
2018-07-01T11:29:52.013Z,2676.00
2018-07-01T11:30:51.996Z,2680.00
2018-07-01T11:31:53.448Z,2692.00
2018-07-01T11:32:51.712Z,2704.00
2018-07-01T11:33:51.822Z,2720.00
2018-07-01T11:34:51.881Z,2732.00
2018-07-01T11:35:52.286Z,2748.00
2018-07-01T11:36:51.517Z,2760.00
2018-07-01T11:37:51.818Z,2768.00
2018-07-01T11:38:53.950Z,2780.00
2018-07-01T11:39:51.979Z,2788.00
2018-07-01T11:40:51.994Z,2808.00
2018-07-01T11:41:51.804Z,2812.00
2018-07-01T11:42:51.814Z,2832.00
2018-07-01T11:43:52.006Z,2844.00
2018-07-01T11:44:51.494Z,2860.00
2018-07-01T11:45:51.506Z,2872.00
2018-07-01T11:46:52.003Z,2884.00
2018-07-01T11:47:51.967Z,2892.00
2018-07-01T11:48:51.283Z,2896.00
2018-07-01T11:49:53.559Z,2916.00
2018-07-01T11:50:51.728Z,2928.00
2018-07-01T11:51:51.472Z,2952.00
2018-07-01T11:52:51.955Z,2968.00
2018-07-01T11:53:52.026Z,2984.00
2018-07-01T11:54:51.469Z,2996.00
2018-07-01T11:55:51.996Z,3012.00
2018-07-01T11:56:51.999Z,3032.00
2018-07-01T11:57:51.522Z,3036.00
2018-07-01T11:58:52.030Z,3052.00
2018-07-01T11:59:52.026Z,3064.00
2018-07-01T12:00:51.818Z,3080.00
2018-07-01T12:01:52.119Z,3092.00
2018-07-01T12:02:52.064Z,3100.00
2018-07-01T12:03:51.540Z,3112.00
2018-07-01T12:05:16.210Z,3124.00
2018-07-01T12:05:52.323Z,3140.00
2018-07-01T12:06:51.766Z,3156.00
2018-07-01T12:07:51.965Z,3172.00
2018-07-01T12:08:52.057Z,3184.00
2018-07-01T12:09:51.518Z,3196.00
2018-07-01T12:10:51.525Z,3208.00
2018-07-01T12:11:52.049Z,3224.00
2018-07-01T12:12:52.036Z,3244.00
2018-07-01T12:13:51.517Z,3268.00
2018-07-01T12:14:51.965Z,3296.00
2018-07-01T12:15:51.519Z,3324.00
2018-07-01T12:16:51.757Z,3352.00
2018-07-01T12:17:52.465Z,3392.00
2018-07-01T12:18:51.809Z,3424.00
2018-07-01T12:19:52.390Z,3460.00
2018-07-01T12:20:51.974Z,3508.00
2018-07-01T12:21:51.537Z,3536.00
2018-07-01T12:22:51.974Z,3580.00
2018-07-01T12:23:52.024Z,3616.00
2018-07-01T12:24:51.500Z,3640.00
2018-07-01T12:25:52.088Z,3664.00
2018-07-01T12:26:51.682Z,3696.00